Flight Track Log - Related Links

Times and Time Zones

All times are in EDT time to prevent confusion due to time zone crossing. See the TPA702 flight status page for this flight to view local times or setup timezone preferences in your user account.

Time Position Orientation Groundspeed Altitude Reporting Facility
EDT Latitude Longitude Course Direction KTS MPH feet Rate Location/Type
Sat 12:39:00 PM 8.3151 -75.9167 347° North  Level Estimated
Sat 12:40:00 PM 8.4300 -75.9432 347° North  Level Estimated
Sat 12:41:00 PM 8.5449 -75.9698 347° North  Level Estimated
Sat 12:41:54 PM 23.2392 -78.8714 347° North 472 543 40,000  Level Miami Center
Sat 12:42:00 PM 8.6597 -75.9963 347° North  Level Estimated
Sat 12:42:54 PM 23.3664 -78.9028 347° North 477 549 40,000  Level Miami Center
Sat 12:43:00 PM 8.7746 -76.0229 347° North  Level Estimated
Sat 12:43:54 PM 23.4975 -78.9411 345° North 472 543 40,000  Level Miami Center
Sat 12:44:00 PM 8.8895 -76.0495 347° North  Level Estimated
Sat 12:44:54 PM 23.6222 -78.9725 347° North 465 535 40,000  Level Miami Center
Sat 12:45:00 PM 9.0044 -76.0760 347° North  Level Estimated
Sat 12:45:54 PM 23.7514 -79.0086 346° North 465 535 40,000  Level Miami Center
Sat 12:46:00 PM 9.1192 -76.1027 347° North  Level Estimated
Sat 12:46:54 PM 23.8700 -79.0356 348° North 460 529 40,000  Level Miami Center
Sat 12:47:00 PM 9.2341 -76.1293 347° North  Level Estimated
Sat 12:47:54 PM 24.0053 -79.0722 346° North 467 537 40,000  Level Miami Center
Sat 12:48:54 PM 24.1325 -79.0881 354° North 467 537 40,000 -600 Level Miami Center
Sat 12:49:54 PM 24.2639 -79.1064 353° North 462 532 38,800 -1,600 Descending Miami Center
Sat 12:50:54 PM 24.3867 -79.1542 340° North 471 542 36,800 -2,050 Descending Miami Center
Sat 12:51:54 PM 24.5172 -79.2158 337° Northwest 460 529 34,700 -2,400 Descending Miami Center
Sat 12:52:54 PM 24.6139 -79.3136 317° Northwest 479 551 32,000 -2,200 Descending Miami Center
Sat 12:53:54 PM 24.6936 -79.4206 309° West 467 537 30,300 -2,526 Descending Miami Center
Sat 12:59:14 PM 25.2260 -79.7130 309° West 360 414 16,000 -2,517 Descending FlightAware ADS-B
Sat 12:59:54 PM 25.2910 -79.7190 355° North 327 376 15,200 -868 Descending FlightAware ADS-B
Sat 01:00:30 PM 25.3370 -79.7240 354° North 324 373 14,900 -214 Descending FlightAware ADS-B
Sat 01:01:18 PM 25.3980 -79.7310 354° North 324 373 14,900  Level FlightAware ADS-B
Sat 01:01:55 PM 25.4450 -79.7370 353° North 324 373 14,900 -1,702 Level FlightAware ADS-B
Sat 01:03:39 PM 25.5750 -79.7050 13° North 304 350 10,900 -2,208 Descending FlightAware ADS-B
Sat 01:04:19 PM 25.5940 -79.7640 290° West 297 342 9,600 -2,036 Descending FlightAware ADS-B
Sat 01:04:35 PM 25.6020 -79.7860 292° West 294 338 9,000 -2,143 Descending FlightAware ADS-B
Sat 01:05:01 PM 25.6170 -79.8200 296° West 284 327 8,100 -2,233 Descending FlightAware ADS-B
Sat 01:05:18 PM 25.6300 -79.8400 306° West 286 329 7,400 -2,512 Descending FlightAware ADS-B
Sat 01:05:44 PM 25.6510 -79.8700 308° West 283 326 6,300 -2,377 Descending FlightAware ADS-B
Sat 01:06:11 PM 25.6720 -79.8990 309° West 278 320 5,300 -2,341 Descending FlightAware ADS-B
Sat 01:06:25 PM 25.6830 -79.9150 307° West 278 320 4,700 -2,250 Descending FlightAware ADS-B
Sat 01:06:51 PM 25.7040 -79.9450 308° West 269 310 3,800 -1,571 Descending FlightAware ADS-B
Sat 01:07:07 PM 25.7160 -79.9610 310° West 253 291 3,600 -682 Descending FlightAware ADS-B
Sat 01:07:35 PM 25.7360 -79.9890 308° West 229 264 3,300 -558 Descending FlightAware ADS-B
Sat 01:07:50 PM 25.7410 -80.0050 289° West 211 243 3,200 -444 Descending FlightAware ADS-B
Sat 01:08:02 PM 25.7430 -80.0170 280° West 200 230 3,100 -486 Descending FlightAware ADS-B
Sat 01:08:27 PM 25.7440 -80.0410 273° West 188 216 2,900 -245 Descending FlightAware ADS-B
Sat 01:08:51 PM 25.7470 -80.0630 279° West 186 214 2,900  Level FlightAware ADS-B
Sat 01:09:19 PM 25.7610 -80.0840 307° West 184 212 2,900 -261 Level FlightAware ADS-B
Sat 01:09:37 PM 25.7710 -80.0990 307° West 182 209 2,700 -585 Descending FlightAware ADS-B
Sat 01:10:00 PM 25.7790 -80.1180 295° West 181 208 2,500 -522 Descending FlightAware ADS-B
Sat 01:10:23 PM 25.7870 -80.1380 294° West 179 206 2,300 -585 Descending FlightAware ADS-B
Sat 01:10:41 PM 25.7920 -80.1530 290° West 172 198 2,100 -643 Descending FlightAware ADS-B
Sat 01:10:51 PM 25.7930 -80.1610 278° West 161 185 2,000 -792 Descending FlightAware ADS-B
Sat 01:11:34 PM 25.7910 -80.1870 265° West 153 176 1,400 -845 Descending FlightAware ADS-B
Sat 01:12:02 PM 25.7900 -80.2150 268° West 150 173 1,000 -857 Descending FlightAware ADS-B
Sat 01:12:30 PM 25.7890 -80.2370 267° West 148 170 600 -840 Descending FlightAware ADS-B
Sat 01:12:52 PM 25.7890 -80.2540 270° West 150 173 300 -714 Descending FlightAware ADS-B
Sat 01:13:12 PM 25.7880 -80.2700 266° West 155 178 100 -600 Descending FlightAware ADS-B
Sat 01:13:40 PM 25.7870 -80.2910 267° West 125 144 -214 Descending FlightAware ADS-B
Sat 01:14:18 PM 25.7870 -80.3030 270° West 34 39  Level FlightAware ADS-B
Sat 01:14:46 PM 25.7900 -80.3050 329° Northwest 34 39  Level FlightAware ADS-B
Sat 01:14:58 PM 25.7890 -80.3040 138° Southeast 26 30  Level FlightAware ADS-B
Sat 01:15:22 PM 25.7880 -80.3050 222° Southwest 25 29  Level FlightAware ADS-B
Sat 01:16:09 PM 25.7900 -80.3060 336° Northwest 25 29  Level FlightAware ADS-B
Sat 01:16:33 PM 25.7910 -80.3060 360° North 20 23  Level FlightAware ADS-B
Sat 01:18:58 PM 25.7920 -80.3050 42° Northeast 2 2  Level FlightAware ADS-B
Sat 01:21:00 PM 25.7954 -80.2901 77° East  Level Estimated

Login

Don't have an account? Register now (free) for customized features, flight alerts, and more!